Latest Weather Observations for Roma

IDQ60801

Issued at 10:02 pm EST Friday 20 July 2018 (issued every 10 minutes, with the page automatically refreshed every 10 minutes)

About weather observations | Map of weather stations | Latest weather observations for QLD | Other Formats
Station Details ID: 043091 Name: ROMA AIRPORT Lat: -26.55 Lon: 148.77 Height: 307.38 m
Data from the previous 72 hours. | See also: Recent months at Roma
Date/Time
EST
Temp
°C
App
Temp
°C
Dew
Point
°C
Rel
Hum
%
Delta-T
°C
Wind Press
QNH
hPa
Press
MSL
hPa
Rain since
9am
mm
Dir  Spd
km/h
Gust
km/h
Spd
kts
Gust
kts
20/10:00pm 7.4 2.9 -2.9 48 3.8 SW 11 11 6 6 1021.4 1021.4 0.0
20/09:30pm 8.2 4.1 -3.0 45 4.2 SW 9 11 5 6 1021.3 1021.3 0.0
20/09:00pm 9.3 4.5 -2.9 42 4.6 SW 13 15 7 8 1021.0 1021.0 0.0
20/08:30pm 10.4 5.6 -2.9 39 5.1 SW 13 15 7 8 1020.8 1020.8 0.0
20/08:00pm 11.8 7.7 -3.1 35 5.8 SSW 9 13 5 7 1020.4 1020.5 0.0
20/07:30pm 13.3 8.1 -2.6 33 6.3 SSW 15 19 8 10 1019.9 1019.9 0.0
20/07:00pm 14.1 9.0 -1.9 33 6.5 SSW 15 20 8 11 1019.4 1019.4 0.0
20/06:30pm 15.4 9.0 -1.6 31 7.1 SSW 22 28 12 15 1018.9 1018.9 0.0
20/06:00pm 15.4 10.2 -3.0 28 7.4 SSW 15 20 8 11 1018.4 1018.4 0.0
20/05:30pm 16.8 11.3 -2.3 27 7.9 SSW 17 22 9 12 1018.0 1018.0 0.0
20/05:00pm 18.3 12.4 -2.0 25 8.6 SSW 19 28 10 15 1017.5 1017.4 0.0
20/04:30pm 20.1 13.9 -2.9 21 9.8 SW 20 30 11 16 1017.2 1017.1 0.0
20/04:00pm 21.2 15.1 -2.6 20 10.2 SW 20 26 11 14 1016.7 1016.7 0.0
20/03:30pm 21.4 14.8 -3.1 19 10.5 WSW 22 32 12 17 1016.5 1016.5 0.0
20/03:00pm 22.2 14.9 -2.5 19 10.7 SW 26 37 14 20 1016.1 1016.1 0.0
20/02:30pm 22.2 14.9 -3.2 18 10.9 SW 26 37 14 20 1015.9 1015.9 0.0
20/02:00pm 22.3 15.8 -2.4 19 10.8 WSW 22 33 12 18 1016.1 1016.1 0.0
20/01:30pm 22.4 16.0 -1.6 20 10.7 WSW 22 35 12 19 1016.1 1016.1 0.0
20/01:00pm 22.3 15.3 -0.4 22 10.3 WSW 26 39 14 21 1016.3 1016.3 0.0
20/12:30pm 23.0 16.3 1.4 24 10.2 WSW 26 39 14 21 1016.5 1016.5 0.0
20/12:00pm 22.7 16.1 2.2 26 9.8 WSW 26 35 14 19 1017.1 1017.0 0.0
20/11:30am 20.6 14.0 7.9 44 6.7 WSW 32 43 17 23 1017.2 1017.1 0.0
20/11:00am 22.0 15.3 8.2 41 7.3 W 33 50 18 27 1016.9 1016.9 0.0
20/10:53am 21.3 14.0 8.6 44 6.8 W 37 50 20 27 1017.1 1017.0 0.0
20/10:30am 21.4 16.3 10.6 50 6.0 NW 28 37 15 20 1016.9 1016.9 0.0
20/10:00am 21.1 17.0 11.4 54 5.4 NW 24 33 13 18 1016.9 1016.9 0.0
20/09:30am 20.1 16.0 11.6 58 4.8 NNW 24 32 13 17 1016.8 1016.8 0.0
20/09:07am 19.1 14.2 11.4 61 4.3 NNW 28 37 15 20 1016.8 1016.8 0.0
20/09:00am 19.2 14.4 11.7 62 4.2 NNW 28 37 15 20 1016.9 1016.9 0.0
20/08:53am 18.7 14.6 11.3 62 4.1 NNW 24 35 13 19 1016.9 1016.9 0.0
20/08:52am 18.9 14.9 11.7 63 4.0 NNW 24 33 13 18 1016.9 1016.9 0.0
20/08:42am 18.5 14.4 11.6 64 3.8 NNW 24 33 13 18 1016.8 1016.8 0.0
20/08:37am 18.3 14.2 11.6 65 3.7 NNW 24 32 13 17 1016.8 1016.8 0.0
20/08:30am 17.7 13.6 11.3 66 3.5 NNW 24 33 13 18 1016.7 1016.7 0.0
20/08:12am 17.1 12.2 11.4 69 3.1 N 28 37 15 20 1016.3 1016.3 0.0
20/08:00am 16.5 11.5 10.8 69 3.1 N 28 35 15 19 1016.3 1016.3 0.0
20/07:30am 16.2 11.8 10.5 69 3.1 N 24 33 13 18 1016.2 1016.2 0.0
20/07:00am 15.6 11.0 9.7 68 3.1 N 24 30 13 16 1015.8 1015.8 0.0
20/06:30am 15.6 11.3 9.5 67 3.2 N 22 28 12 15 1015.7 1015.7 0.0
20/06:00am 15.7 11.0 9.1 65 3.4 N 24 30 13 16 1015.4 1015.4 0.0
20/05:30am 16.1 10.9 8.8 62 3.8 N 26 33 14 18 1015.4 1015.4 0.0
20/05:00am 15.8 10.8 8.1 60 3.9 N 24 32 13 17 1015.4 1015.4 0.0
20/04:30am 15.2 10.8 7.3 59 4.0 N 20 26 11 14 1015.3 1015.3 0.0
20/04:00am 13.3 9.7 6.6 64 3.3 N 15 17 8 9 1015.4 1015.4 0.0
20/03:30am 11.2 7.5 4.7 64 3.0 N 13 13 7 7 1015.4 1015.4 0.0
20/03:00am 11.8 8.0 4.1 59 3.5 N 13 15 7 8 1015.6 1015.6 0.0
20/02:30am 13.0 9.3 4.2 55 4.1 N 13 15 7 8 1015.7 1015.7 0.0
20/02:00am 14.1 9.6 4.4 52 4.5 N 17 20 9 11 1015.7 1015.7 0.0
20/01:30am 14.1 10.5 5.2 55 4.2 N 13 17 7 9 1015.9 1015.9 0.0
20/01:00am 11.4 7.9 3.7 59 3.5 N 11 13 6 7 1015.8 1015.8 0.0
20/12:30am 10.6 6.9 2.2 56 3.6 NNW 11 11 6 6 1015.9 1015.9 0.0
20/12:00am 10.9 7.4 1.4 52 4.0 NNW 9 11 5 6 1015.6 1015.6 0.0
 
Date/Time
EST
Temp
°C
App
Temp
°C
Dew
Point
°C
Rel
Hum
%
Delta-T
°C
Wind Press
QNH
hPa
Press
MSL
hPa
Rain since
9am
mm
Dir  Spd
km/h
Gust
km/h
Spd
kts
Gust
kts
19/11:30pm 13.6 10.2 1.9 45 5.2 N 9 11 5 6 1015.7 1015.7 0.0
19/11:00pm 14.7 11.0 2.3 43 5.6 N 11 13 6 7 1016.2 1016.2 0.0
19/10:30pm 14.7 11.0 2.3 43 5.6 N 11 15 6 8 1016.5 1016.5 0.0
19/10:00pm 13.6 9.8 1.6 44 5.3 N 11 13 6 7 1016.4 1016.4 0.0
19/09:30pm 12.4 8.4 0.8 45 5.0 N 11 15 6 8 1016.4 1016.4 0.0
19/09:00pm 12.0 8.0 0.5 45 4.9 N 11 13 6 7 1016.4 1016.4 0.0
19/08:30pm 11.8 7.3 0.0 44 4.9 N 13 17 7 9 1016.3 1016.3 0.0
19/08:00pm 12.2 7.9 0.9 46 4.8 N 13 13 7 7 1016.5 1016.5 0.0
19/07:30pm 13.9 10.4 1.5 43 5.4 N 9 11 5 6 1016.4 1016.4 0.0
19/07:00pm 14.4 10.5 1.0 40 5.8 NNE 11 13 6 7 1016.4 1016.4 0.0
19/06:30pm 15.2 10.8 0.6 37 6.4 N 13 13 7 7 1016.2 1016.2 0.0
19/06:00pm 16.6 12.5 -0.1 32 7.3 N 11 13 6 7 1016.0 1016.0 0.0
19/05:30pm 19.1 13.8 -0.3 27 8.6 N 17 20 9 11 1016.0 1016.0 0.0
19/05:19pm 20.6 15.0 -0.1 25 9.3 N 19 26 10 14 1015.9 1015.9 0.0
19/05:00pm 21.7 15.9 -0.3 23 9.9 N 20 28 11 15 1015.7 1015.7 0.0
19/04:43pm 22.2 16.4 0.1 23 10.1 NNE 20 28 11 15 1015.4 1015.4 0.0
19/04:30pm 22.9 17.4 0.7 23 10.3 NNE 19 24 10 13 1015.4 1015.4 0.0
19/04:00pm 23.5 17.2 -0.7 20 11.0 NNE 22 32 12 17 1015.4 1015.4 0.0
19/03:30pm 23.9 17.9 -1.8 18 11.5 N 20 32 11 17 1015.6 1015.6 0.0
19/03:00pm 25.1 19.3 -1.6 17 12.1 N 19 26 10 14 1015.9 1015.9 0.0
19/02:30pm 24.9 19.1 -0.3 19 11.7 N 20 28 11 15 1016.1 1016.1 0.0
19/02:00pm 24.4 18.9 0.7 21 11.2 N 19 26 10 14 1016.6 1016.6 0.0
19/01:30pm 23.9 18.2 0.3 21 11.0 N 20 30 11 16 1017.2 1017.1 0.0
19/01:00pm 23.7 17.6 0.1 21 10.9 N 22 32 12 17 1017.8 1017.8 0.0
19/12:30pm 24.0 18.4 -0.3 20 11.2 N 19 28 10 15 1018.6 1018.6 0.0
19/12:00pm 23.4 17.7 0.5 22 10.6 N 20 28 11 15 1019.2 1019.2 0.0
19/11:30am 23.1 17.1 0.9 23 10.4 N 22 30 12 16 1019.7 1019.7 0.0
19/11:00am 22.1 16.2 1.7 26 9.6 N 22 32 12 17 1020.1 1020.1 0.0
19/10:30am 21.0 14.8 2.3 29 8.9 NNW 24 32 13 17 1020.8 1020.8 0.0
19/10:00am 20.4 14.9 1.8 29 8.7 N 20 26 11 14 1021.0 1021.0 0.0
19/09:30am 18.8 14.0 0.4 29 8.2 N 15 20 8 11 1021.1 1021.1 0.0
19/09:00am 15.8 10.7 -1.7 30 7.3 N 15 17 8 9 1021.1 1021.1 0.0
19/08:30am 12.2 6.9 -4.0 32 6.2 N 15 19 8 10 1021.1 1021.1 0.0
19/08:00am 8.3 2.6 -3.5 43 4.3 N 17 20 9 11 1021.1 1021.1 0.0
19/07:51am 7.1 2.3 -2.9 49 3.7 N 13 17 7 9 1021.1 1021.1 0.0
19/07:30am 2.1 -1.5 -2.2 73 1.5 N 7 9 4 5 1021.0 1021.0 0.0
19/07:00am -1.2 -3.9 -5.6 72 1.3 CALM 0 0 0 0 1020.8 1020.8 0.0
19/06:30am -0.3 -4.3 -5.5 68 1.6 NNE 7 9 4 5 1020.7 1020.7 0.0
19/06:00am 0.0 -4.0 -5.4 67 1.7 N 7 7 4 4 1020.2 1020.2 0.0
19/05:30am 0.5 -3.3 -5.1 66 1.8 NNE 6 7 3 4 1020.1 1020.1 0.0
19/05:00am 0.3 -3.7 -5.3 66 1.8 N 7 9 4 5 1020.2 1020.2 0.0
19/04:30am 0.4 -3.3 -4.6 69 1.7 NNE 6 7 3 4 1020.1 1020.1 0.0
19/04:00am -0.3 -4.3 -5.9 66 1.7 NNE 7 9 4 5 1020.0 1020.0 0.0
19/03:30am 1.4 -2.9 -4.4 65 2.0 N 9 11 5 6 1020.1 1020.1 0.0
19/03:00am 0.0 -4.7 -5.0 69 1.6 NNE 11 17 6 9 1020.7 1020.7 0.0
19/02:30am 1.1 -3.2 -4.7 65 2.0 N 9 9 5 5 1020.7 1020.7 0.0
19/02:00am 1.0 -1.6 -4.6 66 1.9 CALM 0 0 0 0 1020.9 1020.9 0.0
19/01:30am 2.4 -1.3 -4.6 60 2.3 N 6 6 3 3 1021.0 1021.0 0.0
19/01:00am 2.6 0.0 -5.3 56 2.6 CALM 0 0 0 0 1021.2 1021.2 0.0
19/12:30am 3.9 1.3 -4.8 53 2.9 CALM 0 0 0 0 1021.2 1021.2 0.0
19/12:00am 2.5 -0.1 -5.4 56 2.7 CALM 0 0 0 0 1021.0 1021.0 0.0
 
Date/Time
EST
Temp
°C
App
Temp
°C
Dew
Point
°C
Rel
Hum
%
Delta-T
°C
Wind Press
QNH
hPa
Press
MSL
hPa
Rain since
9am
mm
Dir  Spd
km/h
Gust
km/h
Spd
kts
Gust
kts
18/11:30pm 3.3 0.7 -4.6 56 2.7 CALM 0 0 0 0 1020.8 1020.8 0.0
18/11:00pm 4.0 0.7 -4.7 53 2.9 N 4 7 2 4 1020.8 1020.8 0.0
18/10:30pm 4.9 1.1 -5.2 48 3.4 NNE 6 9 3 5 1020.8 1020.8 0.0
18/10:00pm 4.2 0.2 -5.5 49 3.2 N 7 9 4 5 1020.9 1020.9 0.0
18/09:30pm 5.8 1.9 -4.9 46 3.7 N 7 9 4 5 1020.9 1020.9 0.0
18/09:00pm 6.5 3.9 -4.9 44 4.0 CALM 0 0 0 0 1020.9 1020.9 0.0
18/08:30pm 6.6 3.0 -7.0 37 4.5 N 4 7 2 4 1020.7 1020.7 0.0
18/08:00pm 7.2 3.3 -6.5 37 4.6 N 6 7 3 4 1020.8 1020.8 0.0
18/07:30pm 8.9 4.1 -6.1 34 5.2 NNE 11 11 6 6 1020.4 1020.5 0.0
18/07:00pm 11.1 8.3 -6.7 28 6.3 CALM 0 0 0 0 1020.2 1020.2 0.0
18/06:30pm 13.5 10.6 -7.8 22 7.6 CALM 0 0 0 0 1020.0 1020.0 0.0
18/06:00pm 16.1 12.0 -8.2 18 8.8 SE 6 7 3 4 1019.8 1019.8 0.0
18/05:30pm 18.4 13.7 -9.5 14 10.2 SE 9 9 5 5 1019.6 1019.6 0.0
18/05:00pm 21.3 16.6 -9.2 12 11.5 SSE 9 13 5 7 1019.4 1019.4 0.0
18/04:30pm 23.1 18.8 -8.9 11 12.4 S 7 11 4 6 1019.2 1019.2 0.0
18/04:00pm 23.5 19.2 -8.6 11 12.6 SSE 7 13 4 7 1019.2 1019.2 0.0
18/03:30pm 23.7 18.3 -8.5 11 12.7 SSE 13 17 7 9 1019.1 1019.1 0.0
18/03:00pm 23.8 19.2 -8.4 11 12.7 SE 9 17 5 9 1019.1 1019.1 0.0
18/02:30pm 23.4 19.1 -8.7 11 12.5 SSW 7 13 4 7 1019.2 1019.2 0.0
18/02:00pm 23.4 18.4 -8.7 11 12.5 SSE 11 15 6 8 1019.3 1019.3 0.0
18/01:30pm 23.7 19.4 -8.5 11 12.7 E 7 11 4 6 1019.5 1019.5 0.0
18/01:00pm 22.7 18.4 -9.2 11 12.2 E 7 11 4 6 1020.0 1020.0 0.0
18/12:30pm 23.1 18.4 -8.9 11 12.4 ESE 9 13 5 7 1020.4 1020.5 0.0
18/12:00pm 23.0 18.4 -7.9 12 12.2 E 9 15 5 8 1021.1 1021.1 0.0
18/11:30am 22.4 17.8 -8.4 12 12.0 N 9 15 5 8 1021.7 1021.7 0.0
18/11:00am 21.1 16.1 -8.4 13 11.3 N 11 17 6 9 1022.0 1022.0 0.0
18/10:30am 19.7 15.1 -7.6 15 10.5 N 9 11 5 6 1022.2 1022.2 0.0
18/10:00am 17.1 12.2 -7.4 18 9.1 N 11 13 6 7 1022.4 1022.4 0.0
18/09:30am 14.8 10.2 -4.5 26 7.5 NNE 11 13 6 7 1022.4 1022.4 0.0
18/09:00am 10.5 6.4 -3.2 38 5.2 NNE 9 9 5 5 1022.3 1022.3 0.0
18/08:30am 6.8 2.7 -3.4 48 3.7 NNE 9 9 5 5 1022.1 1022.1 0.0
18/08:00am 3.3 -0.4 -3.3 62 2.3 N 7 9 4 5 1022.0 1022.0 0.0
18/07:30am 0.2 -4.0 -3.9 74 1.4 N 9 11 5 6 1021.8 1021.8 0.0
18/07:00am -1.9 -6.7 -5.6 76 1.1 N 11 11 6 6 1021.6 1021.6 0.0
18/06:30am -1.5 -5.5 -6.1 71 1.4 N 7 9 4 5 1021.3 1021.3 0.0
18/06:00am -1.3 -4.0 -5.5 73 1.3 CALM 0 7 0 4 1021.2 1021.2 0.0
18/05:30am -0.4 -3.4 -5.4 69 1.6 NNE 2 6 1 3 1021.0 1021.0 0.0
18/05:00am 0.6 -3.1 -4.8 67 1.8 NNW 6 7 3 4 1020.4 1020.5 0.0
18/04:30am -0.9 -4.7 -5.5 71 1.4 N 6 7 3 4 1020.3 1020.4 0.0
18/04:00am -1.2 -5.0 -5.8 71 1.4 N 6 7 3 4 1020.2 1020.2 0.0
18/03:30am 1.0 -1.6 -4.8 65 2.0 CALM 0 0 0 0 1020.3 1020.4 0.0
18/03:00am 0.6 -3.7 -5.0 66 1.9 N 9 9 5 5 1020.1 1020.1 0.0
18/02:30am 1.4 -2.3 -4.4 65 2.0 NNE 6 7 3 4 1020.2 1020.2 0.0
18/02:00am 1.2 -3.0 -4.2 67 1.9 N 9 11 5 6 1020.3 1020.4 0.0
18/01:30am 0.9 -3.4 -5.3 63 2.1 N 9 9 5 5 1020.6 1020.6 0.0
18/01:00am 2.2 -0.4 -5.4 57 2.6 CALM 0 6 0 3 1020.8 1020.8 0.0
18/12:30am 2.2 -0.4 -5.0 59 2.5 CALM 0 0 0 0 1020.7 1020.7 0.0
18/12:00am 1.8 -0.9 -5.6 58 2.5 CALM 0 0 0 0 1020.4 1020.5 0.0
 
Date/Time
EST
Temp
°C
App
Temp
°C
Dew
Point
°C
Rel
Hum
%
Delta-T
°C
Wind Press
QNH
hPa
Press
MSL
hPa
Rain since
9am
mm
Dir  Spd
km/h
Gust
km/h
Spd
kts
Gust
kts
17/11:30pm 3.4 -0.6 -5.5 52 2.9 N 7 7 4 4 1020.3 1020.4 0.0
17/11:00pm 3.7 -0.3 -5.7 50 3.1 N 7 9 4 5 1020.2 1020.2 0.0
17/10:30pm 4.2 0.2 -5.3 50 3.2 N 7 9 4 5 1020.1 1020.1 0.0

Other Formats:

Comma delimited format used in spreadsheet applications
http://www.bom.gov.au/fwo/IDQ60801/IDQ60801.94515.axf

JavaScript Object Notation format (JSON) in row-major order
http://www.bom.gov.au/fwo/IDQ60801/IDQ60801.94515.json